createdAt,value
2017-10-28T00:00:05.720Z,87.47
2017-10-28T00:02:32.264Z,87.24
2017-10-28T00:04:58.362Z,87.32
2017-10-28T00:07:24.486Z,86.84
2017-10-28T00:09:50.579Z,86.87
2017-10-28T00:12:16.647Z,87.06
2017-10-28T00:14:43.093Z,87.09
2017-10-28T00:17:09.228Z,87.04
2017-10-28T00:19:35.278Z,87.26
2017-10-28T00:22:01.362Z,87.69
2017-10-28T00:24:27.471Z,87.60
2017-10-28T00:26:53.943Z,87.08
2017-10-28T00:29:20.047Z,87.18
2017-10-28T00:31:52.262Z,87.57
2017-10-28T00:34:24.855Z,87.83
2017-10-28T00:36:51.002Z,88.07
2017-10-28T00:39:17.083Z,87.14
2017-10-28T00:41:43.155Z,87.15
2017-10-28T00:44:09.218Z,87.35
2017-10-28T00:46:35.658Z,87.35
2017-10-28T00:49:01.753Z,87.33
2017-10-28T00:51:27.841Z,87.27
2017-10-28T00:53:53.939Z,87.14
2017-10-28T00:56:20.051Z,87.21
2017-10-28T00:58:46.502Z,87.19
2017-10-28T01:01:12.575Z,87.14
2017-10-28T01:03:38.655Z,87.88
2017-10-28T01:06:04.752Z,87.37
2017-10-28T01:08:30.843Z,87.47
2017-10-28T01:10:57.304Z,87.29
2017-10-28T01:13:23.391Z,88.05
2017-10-28T01:15:49.473Z,87.43
2017-10-28T01:18:15.531Z,87.75
2017-10-28T01:20:41.607Z,88.19
2017-10-28T01:23:08.091Z,87.26
2017-10-28T01:25:34.154Z,87.78
2017-10-28T01:28:00.257Z,87.11
2017-10-28T01:30:26.378Z,86.94
2017-10-28T01:32:52.467Z,86.97
2017-10-28T01:35:18.918Z,86.88
2017-10-28T01:37:45.042Z,86.81
2017-10-28T01:40:11.163Z,86.84
2017-10-28T01:42:37.231Z,86.53
2017-10-28T01:45:03.334Z,86.87
2017-10-28T01:47:29.708Z,87.38
2017-10-28T01:49:55.771Z,87.25
2017-10-28T01:52:21.811Z,87.65
2017-10-28T01:54:47.906Z,86.78
2017-10-28T01:57:13.987Z,86.57
2017-10-28T01:59:40.504Z,86.15
2017-10-28T02:02:06.588Z,85.99
2017-10-28T02:04:32.643Z,86.85
2017-10-28T02:06:58.770Z,86.19
2017-10-28T02:09:24.883Z,85.99
2017-10-28T02:11:51.318Z,85.96
2017-10-28T02:14:17.429Z,85.74
2017-10-28T02:16:43.562Z,85.84
2017-10-28T02:19:09.778Z,86.22
2017-10-28T02:21:35.807Z,86.15
2017-10-28T02:24:02.299Z,86.48
2017-10-28T02:26:28.402Z,86.78
2017-10-28T02:28:54.490Z,87.20
2017-10-28T02:31:20.579Z,87.43
2017-10-28T02:33:46.642Z,86.79
2017-10-28T02:36:13.069Z,86.41
2017-10-28T02:38:39.183Z,86.79
2017-10-28T02:41:05.261Z,87.31
2017-10-28T02:43:31.354Z,86.95
2017-10-28T02:45:57.462Z,87.07
2017-10-28T02:48:23.939Z,86.81
2017-10-28T02:50:50.026Z,86.35
2017-10-28T02:53:16.099Z,86.47
2017-10-28T02:55:42.136Z,86.51
2017-10-28T02:58:08.202Z,86.17
2017-10-28T03:00:34.631Z,86.55
2017-10-28T03:03:00.725Z,86.39
2017-10-28T03:05:26.831Z,86.41
2017-10-28T03:07:52.949Z,86.63
2017-10-28T03:10:18.960Z,86.74
2017-10-28T03:12:45.477Z,86.38
2017-10-28T03:15:11.606Z,86.46
2017-10-28T03:17:37.658Z,86.48
2017-10-28T03:20:03.934Z,86.41
2017-10-28T03:22:30.016Z,86.50
2017-10-28T03:24:56.414Z,86.48
2017-10-28T03:27:22.535Z,86.49
2017-10-28T03:29:48.622Z,86.34
2017-10-28T03:32:14.735Z,86.21
2017-10-28T03:34:40.834Z,86.33
2017-10-28T03:37:06.883Z,86.31
2017-10-28T03:39:32.896Z,86.48
2017-10-28T03:41:58.956Z,86.11
2017-10-28T03:44:25.034Z,86.14
2017-10-28T03:46:51.186Z,86.24
2017-10-28T03:49:17.675Z,86.25
2017-10-28T03:51:43.762Z,86.48
2017-10-28T03:54:09.838Z,86.58
2017-10-28T03:56:36.274Z,86.61
2017-10-28T03:59:02.379Z,86.62
2017-10-28T04:01:28.446Z,86.40
2017-10-28T04:03:54.880Z,86.30
2017-10-28T04:06:20.955Z,86.23
2017-10-28T04:08:47.031Z,86.09
2017-10-28T04:11:13.134Z,85.96
2017-10-28T04:13:39.247Z,85.77
2017-10-28T04:16:05.704Z,85.73
2017-10-28T04:18:31.799Z,85.46
2017-10-28T04:20:57.893Z,85.53
2017-10-28T04:23:23.959Z,85.39
2017-10-28T04:25:50.031Z,85.42
2017-10-28T04:28:16.551Z,84.81
2017-10-28T04:30:42.616Z,84.81
2017-10-28T04:33:08.672Z,84.70
2017-10-28T04:35:34.755Z,84.69
2017-10-28T04:38:00.790Z,84.78
2017-10-28T04:40:27.278Z,84.61
2017-10-28T04:42:53.358Z,84.52
2017-10-28T04:45:19.454Z,84.60
2017-10-28T04:47:45.873Z,84.70
2017-10-28T04:50:11.961Z,84.42
2017-10-28T04:52:38.061Z,84.47
2017-10-28T04:55:04.455Z,84.73
2017-10-28T04:57:30.550Z,84.83
2017-10-28T04:59:56.657Z,84.90
2017-10-28T05:02:22.758Z,84.89
2017-10-28T05:04:48.834Z,84.65
2017-10-28T05:07:15.283Z,83.87
2017-10-28T05:09:41.377Z,83.74
2017-10-28T05:12:07.441Z,84.12
2017-10-28T05:14:33.563Z,84.25
2017-10-28T05:16:59.663Z,84.47
2017-10-28T05:19:26.045Z,84.52
2017-10-28T05:21:52.123Z,84.27
2017-10-28T05:24:18.227Z,84.20
2017-10-28T05:26:44.435Z,83.92
2017-10-28T05:29:10.518Z,84.07
2017-10-28T05:31:36.998Z,83.88
2017-10-28T05:34:03.051Z,83.72
2017-10-28T05:36:29.087Z,83.34
2017-10-28T05:38:55.193Z,83.51
2017-10-28T05:41:21.233Z,83.34
2017-10-28T05:43:47.610Z,83.19
2017-10-28T05:46:13.647Z,83.36
2017-10-28T05:48:39.796Z,83.41
2017-10-28T05:51:05.923Z,83.14
2017-10-28T05:53:32.006Z,82.85
2017-10-28T05:55:58.395Z,82.81
2017-10-28T05:58:24.462Z,83.08
2017-10-28T06:00:50.550Z,82.65
2017-10-28T06:03:16.639Z,82.70
2017-10-28T06:05:42.707Z,82.65
2017-10-28T06:08:09.131Z,81.86
2017-10-28T06:10:35.223Z,82.32
2017-10-28T06:13:01.308Z,81.92
2017-10-28T06:15:27.419Z,81.94
2017-10-28T06:17:53.522Z,81.72
2017-10-28T06:20:20.082Z,81.93
2017-10-28T06:22:46.170Z,81.72
2017-10-28T06:25:12.293Z,81.28
2017-10-28T06:27:38.426Z,81.80
2017-10-28T06:30:04.541Z,81.16
2017-10-28T06:32:31.000Z,81.39
2017-10-28T06:34:57.043Z,81.43
2017-10-28T06:37:23.112Z,81.55
2017-10-28T06:39:49.192Z,81.69
2017-10-28T06:42:15.277Z,81.51
2017-10-28T06:44:41.749Z,81.40
2017-10-28T06:47:07.898Z,81.65
2017-10-28T06:49:33.993Z,81.79
2017-10-28T06:52:00.087Z,81.66
2017-10-28T06:54:26.212Z,81.44
2017-10-28T06:56:52.688Z,81.53
2017-10-28T06:59:18.747Z,81.86
2017-10-28T07:01:44.843Z,81.87
2017-10-28T07:04:11.015Z,81.47
2017-10-28T07:06:37.143Z,81.38
2017-10-28T07:09:03.637Z,81.07
2017-10-28T07:11:29.683Z,81.25
2017-10-28T07:13:55.758Z,80.90
2017-10-28T07:16:21.865Z,80.58
2017-10-28T07:18:48.402Z,80.92
2017-10-28T07:21:14.775Z,81.11
2017-10-28T07:23:40.863Z,81.13
2017-10-28T07:26:06.959Z,80.79
2017-10-28T07:28:33.092Z,80.86
2017-10-28T07:30:59.171Z,80.46
2017-10-28T07:33:25.583Z,80.30
2017-10-28T07:35:51.650Z,80.27
2017-10-28T07:38:17.724Z,80.53
2017-10-28T07:40:43.827Z,80.38
2017-10-28T07:43:09.919Z,80.50
2017-10-28T07:45:36.360Z,80.77
2017-10-28T07:48:02.447Z,81.04
2017-10-28T07:50:28.573Z,80.93
2017-10-28T07:52:54.667Z,80.85
2017-10-28T07:55:20.760Z,80.69
2017-10-28T07:57:47.211Z,80.49
2017-10-28T08:00:13.843Z,80.21
2017-10-28T08:02:39.963Z,79.65
2017-10-28T08:05:06.082Z,79.70
2017-10-28T08:07:32.162Z,79.25
2017-10-28T08:09:58.651Z,79.10
2017-10-28T08:12:24.720Z,78.91
2017-10-28T08:14:50.784Z,79.13
2017-10-28T08:17:16.875Z,78.85
2017-10-28T08:19:42.925Z,78.91
2017-10-28T08:22:09.419Z,78.54
2017-10-28T08:24:35.537Z,78.22
2017-10-28T08:27:01.615Z,78.11
2017-10-28T08:29:27.732Z,78.58
2017-10-28T08:31:53.871Z,78.06
2017-10-28T08:34:20.355Z,77.99
2017-10-28T08:36:46.445Z,78.18
2017-10-28T08:39:12.507Z,78.15
2017-10-28T08:41:38.573Z,78.08
2017-10-28T08:44:04.643Z,78.20
2017-10-28T08:46:31.198Z,78.02
2017-10-28T08:48:57.310Z,77.83
2017-10-28T08:51:23.330Z,78.02
2017-10-28T08:53:49.479Z,78.32
2017-10-28T08:56:15.535Z,78.92
2017-10-28T08:58:41.951Z,79.22
2017-10-28T09:01:08.134Z,79.44
2017-10-28T09:03:34.302Z,79.91
2017-10-28T09:06:00.390Z,80.17
2017-10-28T09:08:26.471Z,79.96
2017-10-28T09:10:52.989Z,80.01
2017-10-28T09:13:19.086Z,80.41
2017-10-28T09:15:45.290Z,80.16
2017-10-28T09:18:11.894Z,79.49
2017-10-28T09:20:38.050Z,79.14
2017-10-28T09:23:04.182Z,79.15
2017-10-28T09:25:30.298Z,79.20
2017-10-28T09:27:56.394Z,78.32
2017-10-28T09:30:22.834Z,78.21
2017-10-28T09:32:48.953Z,78.64
2017-10-28T09:35:15.036Z,78.11
2017-10-28T09:37:41.469Z,77.88
2017-10-28T09:40:07.713Z,77.38
2017-10-28T09:42:33.937Z,77.01
2017-10-28T09:45:00.018Z,76.67
2017-10-28T09:47:26.114Z,77.19
2017-10-28T09:49:52.578Z,77.26
2017-10-28T09:52:18.633Z,76.02
2017-10-28T09:54:44.694Z,76.17
2017-10-28T09:57:11.073Z,76.37
2017-10-28T09:59:37.149Z,76.01
2017-10-28T10:02:03.251Z,75.70
2017-10-28T10:04:29.362Z,75.83
2017-10-28T10:06:55.441Z,75.37
2017-10-28T10:09:21.908Z,74.89
2017-10-28T10:11:48.060Z,75.27
2017-10-28T10:14:14.079Z,75.11
2017-10-28T10:16:40.182Z,75.53
2017-10-28T10:19:06.307Z,76.51
2017-10-28T10:21:32.375Z,76.92
2017-10-28T10:23:58.491Z,77.59
2017-10-28T10:26:24.653Z,77.95
2017-10-28T10:28:50.709Z,77.20
2017-10-28T10:31:16.770Z,77.40
2017-10-28T10:33:42.854Z,77.68
2017-10-28T10:36:08.962Z,78.13
2017-10-28T10:38:35.038Z,78.50
2017-10-28T10:41:01.094Z,80.05
2017-10-28T10:43:27.577Z,80.72
2017-10-28T10:45:53.658Z,80.83
2017-10-28T10:48:19.759Z,80.84
2017-10-28T10:50:45.867Z,79.93
2017-10-28T10:53:11.981Z,79.63
2017-10-28T10:55:38.007Z,79.40
2017-10-28T10:58:04.090Z,79.55
2017-10-28T11:00:30.207Z,77.75
2017-10-28T11:02:56.299Z,77.78
2017-10-28T11:05:22.410Z,76.90
2017-10-28T11:07:48.498Z,76.85
2017-10-28T11:10:15.504Z,76.24
2017-10-28T11:12:41.619Z,76.12
2017-10-28T11:15:07.736Z,75.44
2017-10-28T11:17:33.770Z,75.45
2017-10-28T11:19:59.903Z,75.01
2017-10-28T11:22:26.010Z,74.72
2017-10-28T11:24:52.086Z,74.46
2017-10-28T11:27:18.157Z,74.42
2017-10-28T11:29:44.254Z,73.17
2017-10-28T11:32:10.348Z,72.46
2017-10-28T11:34:36.435Z,72.86
2017-10-28T11:37:02.540Z,73.15
2017-10-28T11:39:28.574Z,71.91
2017-10-28T11:41:54.666Z,72.71
2017-10-28T11:44:20.803Z,71.57
2017-10-28T11:46:46.843Z,71.91
2017-10-28T11:49:12.953Z,71.25
2017-10-28T11:51:39.038Z,72.00
2017-10-28T11:54:05.190Z,71.71
2017-10-28T11:56:31.253Z,72.11
2017-10-28T11:58:57.270Z,72.30
2017-10-28T12:01:23.370Z,72.31
2017-10-28T12:03:49.465Z,72.51
2017-10-28T12:06:15.554Z,72.74
2017-10-28T12:08:41.651Z,72.61
2017-10-28T12:11:07.791Z,73.11
2017-10-28T12:13:33.858Z,72.51
2017-10-28T12:16:00.092Z,73.32
2017-10-28T12:18:26.184Z,72.70
2017-10-28T12:20:52.270Z,71.95
2017-10-28T12:23:18.396Z,72.21
2017-10-28T12:25:44.470Z,72.19
2017-10-28T12:28:10.565Z,71.91
2017-10-28T12:30:36.658Z,71.91
2017-10-28T12:33:02.887Z,71.27
2017-10-28T12:35:28.920Z,72.12
2017-10-28T12:37:55.015Z,71.81
2017-10-28T12:40:21.239Z,71.49
2017-10-28T12:42:47.322Z,71.67
2017-10-28T12:45:13.372Z,71.82
2017-10-28T12:47:39.458Z,71.46
2017-10-28T12:50:05.565Z,71.30
2017-10-28T12:52:31.584Z,71.57
2017-10-28T12:54:58.861Z,71.49
2017-10-28T12:57:24.941Z,71.33
2017-10-28T12:59:51.009Z,70.99
2017-10-28T13:02:17.094Z,71.38
2017-10-28T13:04:43.219Z,71.08
2017-10-28T13:07:09.320Z,71.42
2017-10-28T13:09:35.433Z,71.80
2017-10-28T13:12:01.538Z,70.61
2017-10-28T13:14:27.626Z,71.45
2017-10-28T13:16:53.738Z,71.05
2017-10-28T13:19:19.926Z,71.01
2017-10-28T13:21:45.954Z,71.11
2017-10-28T13:24:12.024Z,71.29
2017-10-28T13:26:38.136Z,70.75
2017-10-28T13:29:04.214Z,70.64
2017-10-28T13:31:30.294Z,70.76
2017-10-28T13:33:56.421Z,71.24
2017-10-28T13:36:22.571Z,70.77
2017-10-28T13:38:48.673Z,70.17
2017-10-28T13:41:14.751Z,70.32
2017-10-28T13:43:40.848Z,70.28
2017-10-28T13:46:06.930Z,71.09
2017-10-28T13:48:33.022Z,70.57
2017-10-28T13:50:59.100Z,69.75
2017-10-28T13:53:25.209Z,69.96
2017-10-28T13:55:51.305Z,70.28
2017-10-28T13:58:17.417Z,69.86
2017-10-28T14:00:43.515Z,69.97
2017-10-28T14:03:09.595Z,69.98
2017-10-28T14:05:35.675Z,70.07
2017-10-28T14:08:01.762Z,69.86
2017-10-28T14:10:27.837Z,70.32
2017-10-28T14:12:53.952Z,70.13
2017-10-28T14:15:20.039Z,69.78
2017-10-28T14:17:46.143Z,70.12
2017-10-28T14:20:12.226Z,70.58
2017-10-28T14:22:38.366Z,69.73
2017-10-28T14:25:04.572Z,69.77
2017-10-28T14:27:30.655Z,69.78
2017-10-28T14:29:56.747Z,70.17
2017-10-28T14:32:22.852Z,69.97
2017-10-28T14:34:48.962Z,69.70
2017-10-28T14:37:15.104Z,70.52
2017-10-28T14:39:41.206Z,70.45
2017-10-28T14:42:07.263Z,70.19
2017-10-28T14:44:33.406Z,70.68
2017-10-28T14:46:59.471Z,70.58
2017-10-28T14:49:25.551Z,70.98
2017-10-28T14:51:51.667Z,70.68
2017-10-28T14:54:17.749Z,70.95
2017-10-28T14:56:43.938Z,70.79
2017-10-28T14:59:10.071Z,71.12
2017-10-28T15:01:36.198Z,70.95
2017-10-28T15:04:02.279Z,70.92
2017-10-28T15:06:28.482Z,71.52
2017-10-28T15:08:54.522Z,71.13
2017-10-28T15:11:20.668Z,70.83
2017-10-28T15:13:46.762Z,70.98
2017-10-28T15:16:12.863Z,70.73
2017-10-28T15:18:38.972Z,70.86
2017-10-28T15:21:05.094Z,71.19
2017-10-28T15:23:31.183Z,71.22
2017-10-28T15:25:57.286Z,70.96
2017-10-28T15:28:23.383Z,71.57
2017-10-28T15:30:49.454Z,71.13
2017-10-28T15:33:15.569Z,71.17
2017-10-28T15:35:41.694Z,71.48
2017-10-28T15:38:07.870Z,71.66
2017-10-28T15:40:33.954Z,71.56
2017-10-28T15:43:00.031Z,71.74
2017-10-28T15:45:26.134Z,71.71
2017-10-28T15:47:52.199Z,71.52
2017-10-28T15:50:18.289Z,71.93
2017-10-28T15:52:44.401Z,71.87
2017-10-28T15:55:10.454Z,72.05
2017-10-28T15:57:36.522Z,71.96
2017-10-28T16:00:02.583Z,71.72
2017-10-28T16:02:28.714Z,71.60
2017-10-28T16:04:54.803Z,71.72
2017-10-28T16:07:20.922Z,71.83
2017-10-28T16:09:46.980Z,72.02
2017-10-28T16:12:13.114Z,72.04
2017-10-28T16:14:39.189Z,72.16
2017-10-28T16:17:05.290Z,72.18
2017-10-28T16:19:31.379Z,72.54
2017-10-28T16:21:57.479Z,72.51
2017-10-28T16:24:23.578Z,72.50
2017-10-28T16:26:49.644Z,72.67
2017-10-28T16:29:15.747Z,72.73
2017-10-28T16:31:41.848Z,72.89
2017-10-28T16:34:07.896Z,72.79
2017-10-28T16:36:34.084Z,73.21
2017-10-28T16:39:00.216Z,72.91
2017-10-28T16:41:26.298Z,73.22
2017-10-28T16:43:52.395Z,73.32
2017-10-28T16:46:18.479Z,73.44
2017-10-28T16:48:44.728Z,73.22
2017-10-28T16:51:10.830Z,73.47
2017-10-28T16:53:36.932Z,73.42
2017-10-28T16:56:03.055Z,73.40
2017-10-28T16:58:29.174Z,73.29
2017-10-28T17:00:55.285Z,73.41
2017-10-28T17:03:21.377Z,73.36
2017-10-28T17:05:47.486Z,73.29
2017-10-28T17:08:13.610Z,73.32
2017-10-28T17:10:39.698Z,73.42
2017-10-28T17:13:05.804Z,73.34
2017-10-28T17:15:31.935Z,73.49
2017-10-28T17:17:58.118Z,73.72
2017-10-28T17:20:24.220Z,73.37
2017-10-28T17:22:50.350Z,73.37
2017-10-28T17:25:16.418Z,73.31
2017-10-28T17:27:42.601Z,73.43
2017-10-28T17:30:08.718Z,73.63
2017-10-28T17:32:34.841Z,73.83
2017-10-28T17:35:00.992Z,73.53
2017-10-28T17:37:27.070Z,73.64
2017-10-28T17:39:53.180Z,73.29
2017-10-28T17:42:20.065Z,73.46
2017-10-28T17:44:46.186Z,73.42
2017-10-28T17:47:12.314Z,73.34
2017-10-28T17:49:38.420Z,73.32
2017-10-28T17:52:04.496Z,73.64
2017-10-28T17:54:30.618Z,73.63
2017-10-28T17:56:56.803Z,73.60
2017-10-28T17:59:22.891Z,73.58
2017-10-28T18:01:48.942Z,73.69
2017-10-28T18:04:15.199Z,73.78
2017-10-28T18:06:41.304Z,74.12
2017-10-28T18:09:07.465Z,73.73
2017-10-28T18:11:33.607Z,73.88
2017-10-28T18:13:59.722Z,73.89
2017-10-28T18:16:25.823Z,73.97
2017-10-28T18:18:51.891Z,73.90
2017-10-28T18:21:18.044Z,74.23
2017-10-28T18:23:44.167Z,74.02
2017-10-28T18:26:10.310Z,74.21
2017-10-28T18:28:36.466Z,74.02
2017-10-28T18:31:02.624Z,74.26
2017-10-28T18:33:28.728Z,73.77
2017-10-28T18:35:54.864Z,73.73
2017-10-28T18:38:21.002Z,74.19
2017-10-28T18:40:47.109Z,73.81
2017-10-28T18:43:13.229Z,73.84
2017-10-28T18:45:39.617Z,74.00
2017-10-28T18:48:05.738Z,74.01
2017-10-28T18:50:32.026Z,74.12
2017-10-28T18:52:58.190Z,74.49
2017-10-28T18:55:24.380Z,74.91
2017-10-28T18:57:50.559Z,74.92
2017-10-28T19:00:16.744Z,75.46
2017-10-28T19:02:42.883Z,75.76
2017-10-28T19:05:09.058Z,76.12
2017-10-28T19:07:35.253Z,76.17
2017-10-28T19:10:01.588Z,76.68
2017-10-28T19:12:27.765Z,76.92
2017-10-28T19:14:53.885Z,77.74
2017-10-28T19:17:20.038Z,78.24
2017-10-28T19:19:46.173Z,78.57
2017-10-28T19:22:13.151Z,78.95
2017-10-28T19:24:39.326Z,79.45
2017-10-28T19:27:05.445Z,79.13
2017-10-28T19:29:31.567Z,79.29
2017-10-28T19:31:57.685Z,79.99
2017-10-28T19:34:23.808Z,80.43
2017-10-28T19:36:50.041Z,81.24
2017-10-28T19:39:16.130Z,82.04
2017-10-28T19:41:42.352Z,82.41
2017-10-28T19:44:08.594Z,83.30
2017-10-28T19:46:34.753Z,84.21
2017-10-28T19:49:00.973Z,85.10
2017-10-28T19:51:27.163Z,85.09
2017-10-28T19:53:53.424Z,85.05
2017-10-28T19:56:19.580Z,85.34
2017-10-28T19:58:45.745Z,85.96
2017-10-28T20:01:11.916Z,86.26
2017-10-28T20:03:38.078Z,87.14
2017-10-28T20:06:04.234Z,88.33
2017-10-28T20:08:30.370Z,87.56
2017-10-28T20:10:56.472Z,87.48
2017-10-28T20:13:22.599Z,87.31
2017-10-28T20:15:48.782Z,87.07
2017-10-28T20:18:14.919Z,87.69
2017-10-28T20:20:41.033Z,88.01
2017-10-28T20:23:07.069Z,87.21
2017-10-28T20:25:33.164Z,87.25
2017-10-28T20:27:59.255Z,87.20
2017-10-28T20:30:25.357Z,86.56
2017-10-28T20:32:51.454Z,86.22
2017-10-28T20:35:17.831Z,87.05
2017-10-28T20:37:43.923Z,86.46
2017-10-28T20:40:10.035Z,86.58
2017-10-28T20:42:36.118Z,86.52
2017-10-28T20:45:02.286Z,86.72
2017-10-28T20:47:28.415Z,87.01
2017-10-28T20:49:54.492Z,87.24
2017-10-28T20:52:20.591Z,86.67
2017-10-28T20:57:19.482Z,86.29
2017-10-28T20:59:45.586Z,85.76
2017-10-28T21:02:11.667Z,85.61
2017-10-28T21:04:37.759Z,86.14
2017-10-28T21:07:03.846Z,87.36
2017-10-28T21:09:30.364Z,87.09
2017-10-28T21:11:56.476Z,87.01
2017-10-28T21:14:22.642Z,88.00
2017-10-28T21:16:48.748Z,88.37
2017-10-28T21:19:14.835Z,88.98
2017-10-28T21:21:40.940Z,89.52
2017-10-28T21:24:07.006Z,90.23
2017-10-28T21:26:33.083Z,90.22
2017-10-28T21:28:59.225Z,90.61
2017-10-28T21:31:25.310Z,90.75
2017-10-28T21:33:51.389Z,91.23
2017-10-28T21:36:17.466Z,91.02
2017-10-28T21:38:43.555Z,91.29
2017-10-28T21:41:09.631Z,91.78
2017-10-28T21:43:35.715Z,91.91
2017-10-28T21:46:01.786Z,91.82
2017-10-28T21:48:27.859Z,92.16
2017-10-28T21:50:53.950Z,91.99
2017-10-28T21:53:20.003Z,91.60
2017-10-28T21:55:46.048Z,92.31
2017-10-28T21:58:12.133Z,92.12
2017-10-28T22:00:38.242Z,92.22
2017-10-28T22:03:04.283Z,91.88
2017-10-28T22:05:30.370Z,92.11
2017-10-28T22:07:56.451Z,91.75
2017-10-28T22:10:22.606Z,92.11
2017-10-28T22:12:48.742Z,91.79
2017-10-28T22:15:14.823Z,92.22
2017-10-28T22:17:40.982Z,92.10
2017-10-28T22:20:07.028Z,91.96
2017-10-28T22:22:33.110Z,91.96
2017-10-28T22:24:59.219Z,91.81
2017-10-28T22:27:25.246Z,91.82
2017-10-28T22:29:51.299Z,92.09
2017-10-28T22:32:17.426Z,91.81
2017-10-28T22:34:43.542Z,92.18
2017-10-28T22:37:16.563Z,91.88
2017-10-28T22:39:42.667Z,92.32
2017-10-28T22:42:08.745Z,92.14
2017-10-28T22:44:34.909Z,92.61
2017-10-28T22:47:01.025Z,92.66
2017-10-28T22:49:27.110Z,92.48
2017-10-28T22:51:53.164Z,92.52
2017-10-28T22:54:19.267Z,92.32
2017-10-28T22:56:45.363Z,92.32
2017-10-28T22:59:11.494Z,92.86
2017-10-28T23:01:37.594Z,92.63
2017-10-28T23:04:03.695Z,92.36
2017-10-28T23:06:29.766Z,92.49
2017-10-28T23:08:55.850Z,92.72
2017-10-28T23:11:21.978Z,92.82
2017-10-28T23:13:48.035Z,92.55
2017-10-28T23:16:14.083Z,92.79
2017-10-28T23:18:40.186Z,92.06
2017-10-28T23:21:06.274Z,92.48
2017-10-28T23:23:32.382Z,92.65
2017-10-28T23:25:58.520Z,92.61
2017-10-28T23:28:24.599Z,92.50
2017-10-28T23:30:50.710Z,92.86
2017-10-28T23:33:16.763Z,92.70
2017-10-28T23:35:42.899Z,92.05
2017-10-28T23:38:09.015Z,92.43
2017-10-28T23:40:35.082Z,92.59
2017-10-28T23:43:01.237Z,92.11
2017-10-28T23:45:27.377Z,92.43
2017-10-28T23:47:53.447Z,92.47
2017-10-28T23:50:19.538Z,92.28
2017-10-28T23:52:45.650Z,92.50
2017-10-28T23:55:11.746Z,92.03
2017-10-28T23:57:37.830Z,92.03
